Pollenca, Spain
Current Conditions -  °F | °C
As of 3:00 PM on Monday 20 Oct 2014 (Local Time) from LEPA Reporting Station
Clear Clear  
Wind Chill: 28°   Ceiling: Unl
Heat Index: 28°   Visibility: 6mi
Dew Point: 16°   Wind: 12mph
Humidity: 48%   Direction: 240°WSW
Pressure: 30.15"   Gusts: NA
Location:  39.88°N, 3.02°E
Report Text: LEPA 201300Z 24010KT 210V270 CAVOK 28/16 Q1021 NOSIG
Loading
Personal Weather Stations






























Interactive Weather Map
Tropical Storm Tracking
New forecast layout! Learn more

10-Day Weather Forecast

Advertisements
Track Severe Weather on mobile